sensor_id;sensor_type;location;lat;lon;timestamp;temperature;humidity
2993;DHT22;1506;48.932;9.478;2022-10-31T00:01:38;10.00;99.90
2993;DHT22;1506;48.932;9.478;2022-10-31T00:04:05;9.90;99.90
2993;DHT22;1506;48.932;9.478;2022-10-31T00:06:32;9.90;99.90
2993;DHT22;1506;48.932;9.478;2022-10-31T00:09:02;9.90;99.90
2993;DHT22;1506;48.932;9.478;2022-10-31T00:11:30;9.90;99.90
2993;DHT22;1506;48.932;9.478;2022-10-31T00:13:57;9.80;99.90
2993;DHT22;1506;48.932;9.478;2022-10-31T00:16:26;9.70;99.90
2993;DHT22;1506;48.932;9.478;2022-10-31T00:18:56;9.70;99.90
2993;DHT22;1506;48.932;9.478;2022-10-31T00:21:25;9.70;99.90
2993;DHT22;1506;48.932;9.478;2022-10-31T00:23:52;9.70;99.90
2993;DHT22;1506;48.932;9.478;2022-10-31T00:26:19;9.80;99.90
2993;DHT22;1506;48.932;9.478;2022-10-31T00:28:46;9.80;99.90
2993;DHT22;1506;48.932;9.478;2022-10-31T00:31:14;9.80;99.90
2993;DHT22;1506;48.932;9.478;2022-10-31T00:33:41;9.80;99.90
2993;DHT22;1506;48.932;9.478;2022-10-31T00:36:12;9.90;99.90
2993;DHT22;1506;48.932;9.478;2022-10-31T00:38:42;9.80;99.90
2993;DHT22;1506;48.932;9.478;2022-10-31T00:41:10;9.90;99.90
2993;DHT22;1506;48.932;9.478;2022-10-31T00:43:40;9.90;99.90
2993;DHT22;1506;48.932;9.478;2022-10-31T00:46:08;10.00;99.90
2993;DHT22;1506;48.932;9.478;2022-10-31T00:48:36;10.00;99.90
2993;DHT22;1506;48.932;9.478;2022-10-31T00:51:03;10.00;99.90
2993;DHT22;1506;48.932;9.478;2022-10-31T00:53:30;10.00;99.90
2993;DHT22;1506;48.932;9.478;2022-10-31T00:55:57;9.90;99.90
2993;DHT22;1506;48.932;9.478;2022-10-31T00:58:24;9.90;99.90
2993;DHT22;1506;48.932;9.478;2022-10-31T01:00:51;9.80;99.90
2993;DHT22;1506;48.932;9.478;2022-10-31T01:03:24;9.80;99.90
2993;DHT22;1506;48.932;9.478;2022-10-31T01:06:04;9.70;99.90
2993;DHT22;1506;48.932;9.478;2022-10-31T01:08:34;9.60;99.90
2993;DHT22;1506;48.932;9.478;2022-10-31T01:11:13;9.60;99.90
2993;DHT22;1506;48.932;9.478;2022-10-31T01:13:42;9.50;99.90
2993;DHT22;1506;48.932;9.478;2022-10-31T01:16:11;9.40;99.90
2993;DHT22;1506;48.932;9.478;2022-10-31T01:18:40;9.40;99.90
2993;DHT22;1506;48.932;9.478;2022-10-31T01:21:11;9.30;99.90
2993;DHT22;1506;48.932;9.478;2022-10-31T01:23:40;9.30;99.90
2993;DHT22;1506;48.932;9.478;2022-10-31T01:26:16;9.20;99.90
2993;DHT22;1506;48.932;9.478;2022-10-31T01:29:07;9.20;99.90
2993;DHT22;1506;48.932;9.478;2022-10-31T01:31:36;9.20;99.90
2993;DHT22;1506;48.932;9.478;2022-10-31T01:34:05;9.10;99.90
2993;DHT22;1506;48.932;9.478;2022-10-31T01:36:36;9.10;99.90
2993;DHT22;1506;48.932;9.478;2022-10-31T01:39:07;9.20;99.90
2993;DHT22;1506;48.932;9.478;2022-10-31T01:41:38;9.20;99.90
2993;DHT22;1506;48.932;9.478;2022-10-31T01:47:03;9.20;99.90
2993;DHT22;1506;48.932;9.478;2022-10-31T01:49:47;9.30;99.90
2993;DHT22;1506;48.932;9.478;2022-10-31T01:52:23;9.30;99.90
2993;DHT22;1506;48.932;9.478;2022-10-31T01:54:59;9.30;99.90
2993;DHT22;1506;48.932;9.478;2022-10-31T01:57:29;9.30;99.90
2993;DHT22;1506;48.932;9.478;2022-10-31T02:00:00;9.40;99.90
2993;DHT22;1506;48.932;9.478;2022-10-31T02:02:38;9.40;99.90
2993;DHT22;1506;48.932;9.478;2022-10-31T02:05:09;9.40;99.90
2993;DHT22;1506;48.932;9.478;2022-10-31T02:07:57;9.30;99.90
2993;DHT22;1506;48.932;9.478;2022-10-31T02:10:30;9.30;99.90
2993;DHT22;1506;48.932;9.478;2022-10-31T02:13:01;9.30;99.90
2993;DHT22;1506;48.932;9.478;2022-10-31T02:15:31;9.30;99.90
2993;DHT22;1506;48.932;9.478;2022-10-31T02:17:59;9.30;99.90
2993;DHT22;1506;48.932;9.478;2022-10-31T02:20:35;9.30;99.90
2993;DHT22;1506;48.932;9.478;2022-10-31T02:31:58;9.00;99.90
2993;DHT22;1506;48.932;9.478;2022-10-31T02:35:11;8.90;99.90
2993;DHT22;1506;48.932;9.478;2022-10-31T02:44:07;8.40;99.90
2993;DHT22;1506;48.932;9.478;2022-10-31T02:46:54;8.30;99.90
2993;DHT22;1506;48.932;9.478;2022-10-31T02:49:50;8.40;99.90
2993;DHT22;1506;48.932;9.478;2022-10-31T02:52:28;8.50;99.90
2993;DHT22;1506;48.932;9.478;2022-10-31T02:58:08;8.80;99.90
2993;DHT22;1506;48.932;9.478;2022-10-31T03:00:59;8.90;99.90
2993;DHT22;1506;48.932;9.478;2022-10-31T03:04:06;9.00;99.90
2993;DHT22;1506;48.932;9.478;2022-10-31T03:06:54;9.10;99.90
2993;DHT22;1506;48.932;9.478;2022-10-31T03:09:37;9.00;99.90
2993;DHT22;1506;48.932;9.478;2022-10-31T03:12:28;9.00;99.90
2993;DHT22;1506;48.932;9.478;2022-10-31T03:15:21;9.00;99.90
2993;DHT22;1506;48.932;9.478;2022-10-31T03:18:45;9.00;99.90
2993;DHT22;1506;48.932;9.478;2022-10-31T03:21:30;9.00;99.90
2993;DHT22;1506;48.932;9.478;2022-10-31T03:24:02;8.70;99.90
2993;DHT22;1506;48.932;9.478;2022-10-31T03:26:33;8.60;99.90
2993;DHT22;1506;48.932;9.478;2022-10-31T03:29:07;8.40;99.90
2993;DHT22;1506;48.932;9.478;2022-10-31T03:31:50;8.30;99.90
2993;DHT22;1506;48.932;9.478;2022-10-31T03:34:22;8.20;99.90
2993;DHT22;1506;48.932;9.478;2022-10-31T03:36:51;8.10;99.90
2993;DHT22;1506;48.932;9.478;2022-10-31T03:39:22;8.20;99.90
2993;DHT22;1506;48.932;9.478;2022-10-31T03:41:56;8.30;99.90
2993;DHT22;1506;48.932;9.478;2022-10-31T03:44:32;8.50;99.90
2993;DHT22;1506;48.932;9.478;2022-10-31T03:47:03;8.60;99.90
2993;DHT22;1506;48.932;9.478;2022-10-31T03:49:31;8.60;99.90
2993;DHT22;1506;48.932;9.478;2022-10-31T03:52:43;8.60;99.90
2993;DHT22;1506;48.932;9.478;2022-10-31T03:55:16;8.60;99.90
2993;DHT22;1506;48.932;9.478;2022-10-31T03:57:53;8.60;99.90
2993;DHT22;1506;48.932;9.478;2022-10-31T04:00:38;8.50;99.90
2993;DHT22;1506;48.932;9.478;2022-10-31T04:03:24;8.50;99.90
2993;DHT22;1506;48.932;9.478;2022-10-31T04:05:58;8.50;99.90
2993;DHT22;1506;48.932;9.478;2022-10-31T04:08:31;8.50;99.90
2993;DHT22;1506;48.932;9.478;2022-10-31T04:11:01;8.50;99.90
2993;DHT22;1506;48.932;9.478;2022-10-31T04:13:31;8.50;99.90
2993;DHT22;1506;48.932;9.478;2022-10-31T04:16:06;8.50;99.90
2993;DHT22;1506;48.932;9.478;2022-10-31T04:18:40;8.50;99.90
2993;DHT22;1506;48.932;9.478;2022-10-31T04:21:07;8.40;99.90
2993;DHT22;1506;48.932;9.478;2022-10-31T04:23:35;8.30;99.90
2993;DHT22;1506;48.932;9.478;2022-10-31T04:26:24;8.30;99.90
2993;DHT22;1506;48.932;9.478;2022-10-31T04:28:51;8.30;99.90
2993;DHT22;1506;48.932;9.478;2022-10-31T04:31:19;8.40;99.90
2993;DHT22;1506;48.932;9.478;2022-10-31T04:33:48;8.40;99.90
2993;DHT22;1506;48.932;9.478;2022-10-31T04:36:15;8.30;99.90
2993;DHT22;1506;48.932;9.478;2022-10-31T04:38:42;8.40;99.90
2993;DHT22;1506;48.932;9.478;2022-10-31T04:41:21;8.50;99.90
2993;DHT22;1506;48.932;9.478;2022-10-31T04:43:55;8.40;99.90
2993;DHT22;1506;48.932;9.478;2022-10-31T04:46:22;8.30;99.90
2993;DHT22;1506;48.932;9.478;2022-10-31T04:48:49;8.30;99.90
2993;DHT22;1506;48.932;9.478;2022-10-31T04:51:16;8.20;99.90
2993;DHT22;1506;48.932;9.478;2022-10-31T04:53:44;8.30;99.90
2993;DHT22;1506;48.932;9.478;2022-10-31T04:56:29;8.30;99.90
2993;DHT22;1506;48.932;9.478;2022-10-31T04:59:02;8.30;99.90
2993;DHT22;1506;48.932;9.478;2022-10-31T05:01:40;8.40;99.90
2993;DHT22;1506;48.932;9.478;2022-10-31T05:04:09;8.40;99.90
2993;DHT22;1506;48.932;9.478;2022-10-31T05:06:36;8.40;99.90
2993;DHT22;1506;48.932;9.478;2022-10-31T05:09:03;8.40;99.90
2993;DHT22;1506;48.932;9.478;2022-10-31T05:11:30;8.40;99.90
2993;DHT22;1506;48.932;9.478;2022-10-31T05:14:08;8.40;99.90
2993;DHT22;1506;48.932;9.478;2022-10-31T05:16:57;8.40;99.90
2993;DHT22;1506;48.932;9.478;2022-10-31T05:19:43;8.40;99.90
2993;DHT22;1506;48.932;9.478;2022-10-31T05:22:28;8.40;99.90
2993;DHT22;1506;48.932;9.478;2022-10-31T05:24:55;8.30;99.90
2993;DHT22;1506;48.932;9.478;2022-10-31T05:27:22;8.30;99.90
2993;DHT22;1506;48.932;9.478;2022-10-31T05:29:49;8.40;99.90
2993;DHT22;1506;48.932;9.478;2022-10-31T05:32:16;8.30;99.90
2993;DHT22;1506;48.932;9.478;2022-10-31T05:35:01;8.30;99.90
2993;DHT22;1506;48.932;9.478;2022-10-31T05:37:51;8.30;99.90
2993;DHT22;1506;48.932;9.478;2022-10-31T05:40:19;8.30;99.90
2993;DHT22;1506;48.932;9.478;2022-10-31T05:42:50;8.30;99.90
2993;DHT22;1506;48.932;9.478;2022-10-31T05:45:21;8.30;99.90
2993;DHT22;1506;48.932;9.478;2022-10-31T05:47:58;8.20;99.90
2993;DHT22;1506;48.932;9.478;2022-10-31T05:50:47;8.10;99.90
2993;DHT22;1506;48.932;9.478;2022-10-31T05:53:15;8.00;99.90
2993;DHT22;1506;48.932;9.478;2022-10-31T05:55:42;8.00;99.90
2993;DHT22;1506;48.932;9.478;2022-10-31T05:58:28;7.90;99.90
2993;DHT22;1506;48.932;9.478;2022-10-31T06:01:05;8.00;99.90
2993;DHT22;1506;48.932;9.478;2022-10-31T06:03:32;8.00;99.90
2993;DHT22;1506;48.932;9.478;2022-10-31T06:06:02;8.00;99.90
2993;DHT22;1506;48.932;9.478;2022-10-31T06:08:35;7.90;99.90
2993;DHT22;1506;48.932;9.478;2022-10-31T06:11:06;7.90;99.90
2993;DHT22;1506;48.932;9.478;2022-10-31T06:13:53;7.90;99.90
2993;DHT22;1506;48.932;9.478;2022-10-31T06:16:29;7.80;99.90
2993;DHT22;1506;48.932;9.478;2022-10-31T06:19:02;7.60;99.90
2993;DHT22;1506;48.932;9.478;2022-10-31T06:21:30;7.50;99.90
2993;DHT22;1506;48.932;9.478;2022-10-31T06:23:57;7.30;99.90
2993;DHT22;1506;48.932;9.478;2022-10-31T06:26:42;7.20;99.90
2993;DHT22;1506;48.932;9.478;2022-10-31T06:29:09;7.00;99.90
2993;DHT22;1506;48.932;9.478;2022-10-31T06:32:12;6.90;99.90
2993;DHT22;1506;48.932;9.478;2022-10-31T06:34:42;7.00;99.90
2993;DHT22;1506;48.932;9.478;2022-10-31T06:37:11;7.10;99.90
2993;DHT22;1506;48.932;9.478;2022-10-31T06:39:41;7.10;99.90
2993;DHT22;1506;48.932;9.478;2022-10-31T06:42:10;7.30;99.90
2993;DHT22;1506;48.932;9.478;2022-10-31T06:44:37;7.40;99.90
2993;DHT22;1506;48.932;9.478;2022-10-31T06:47:23;7.50;99.90
2993;DHT22;1506;48.932;9.478;2022-10-31T06:50:04;7.60;99.90
2993;DHT22;1506;48.932;9.478;2022-10-31T06:52:32;7.80;99.90
2993;DHT22;1506;48.932;9.478;2022-10-31T06:54:59;8.00;99.90
2993;DHT22;1506;48.932;9.478;2022-10-31T06:57:27;8.20;99.90
2993;DHT22;1506;48.932;9.478;2022-10-31T06:59:54;8.40;99.90
2993;DHT22;1506;48.932;9.478;2022-10-31T07:02:33;8.60;99.90
2993;DHT22;1506;48.932;9.478;2022-10-31T07:05:00;8.70;99.90
2993;DHT22;1506;48.932;9.478;2022-10-31T07:07:27;8.80;99.90
2993;DHT22;1506;48.932;9.478;2022-10-31T07:09:54;8.90;99.90
2993;DHT22;1506;48.932;9.478;2022-10-31T07:12:36;9.00;99.90
2993;DHT22;1506;48.932;9.478;2022-10-31T07:15:04;9.20;99.90
2993;DHT22;1506;48.932;9.478;2022-10-31T07:17:32;9.50;99.90
2993;DHT22;1506;48.932;9.478;2022-10-31T07:19:59;9.60;99.90
2993;DHT22;1506;48.932;9.478;2022-10-31T07:22:35;9.80;99.90
2993;DHT22;1506;48.932;9.478;2022-10-31T07:25:05;10.00;99.90
2993;DHT22;1506;48.932;9.478;2022-10-31T07:27:39;10.20;99.90
2993;DHT22;1506;48.932;9.478;2022-10-31T07:30:12;10.40;99.90
2993;DHT22;1506;48.932;9.478;2022-10-31T07:32:48;10.50;99.90
2993;DHT22;1506;48.932;9.478;2022-10-31T07:35:26;10.70;99.90
2993;DHT22;1506;48.932;9.478;2022-10-31T07:37:57;10.80;99.90
2993;DHT22;1506;48.932;9.478;2022-10-31T07:40:24;10.90;99.90
2993;DHT22;1506;48.932;9.478;2022-10-31T07:42:52;11.00;99.90
2993;DHT22;1506;48.932;9.478;2022-10-31T07:45:52;11.10;99.90
2993;DHT22;1506;48.932;9.478;2022-10-31T07:48:49;11.20;99.90
2993;DHT22;1506;48.932;9.478;2022-10-31T07:51:36;11.30;99.90
2993;DHT22;1506;48.932;9.478;2022-10-31T07:54:24;11.40;99.90
2993;DHT22;1506;48.932;9.478;2022-10-31T07:56:51;11.60;99.90
2993;DHT22;1506;48.932;9.478;2022-10-31T07:59:18;11.70;99.90
2993;DHT22;1506;48.932;9.478;2022-10-31T08:01:47;11.60;99.90
2993;DHT22;1506;48.932;9.478;2022-10-31T08:04:29;11.70;99.90
2993;DHT22;1506;48.932;9.478;2022-10-31T08:07:14;11.80;99.90
2993;DHT22;1506;48.932;9.478;2022-10-31T08:09:47;12.00;99.90
2993;DHT22;1506;48.932;9.478;2022-10-31T08:12:21;12.20;99.90
2993;DHT22;1506;48.932;9.478;2022-10-31T08:14:48;11.80;99.90
2993;DHT22;1506;48.932;9.478;2022-10-31T08:17:17;11.60;99.90
2993;DHT22;1506;48.932;9.478;2022-10-31T08:19:55;11.40;99.90
2993;DHT22;1506;48.932;9.478;2022-10-31T08:22:32;11.30;99.90
2993;DHT22;1506;48.932;9.478;2022-10-31T08:25:00;11.30;99.90
2993;DHT22;1506;48.932;9.478;2022-10-31T08:27:27;11.20;99.90
2993;DHT22;1506;48.932;9.478;2022-10-31T08:29:57;11.40;99.90
2993;DHT22;1506;48.932;9.478;2022-10-31T08:32:25;11.40;99.90
2993;DHT22;1506;48.932;9.478;2022-10-31T08:35:32;11.20;99.90
2993;DHT22;1506;48.932;9.478;2022-10-31T08:38:17;11.30;99.90
2993;DHT22;1506;48.932;9.478;2022-10-31T08:40:48;11.10;99.90
2993;DHT22;1506;48.932;9.478;2022-10-31T08:43:16;11.30;99.90
2993;DHT22;1506;48.932;9.478;2022-10-31T08:45:44;11.60;99.90
2993;DHT22;1506;48.932;9.478;2022-10-31T08:48:20;11.90;99.90
2993;DHT22;1506;48.932;9.478;2022-10-31T08:50:47;12.20;99.90
2993;DHT22;1506;48.932;9.478;2022-10-31T08:55:55;12.60;99.90
2993;DHT22;1506;48.932;9.478;2022-10-31T08:58:24;12.90;99.90
2993;DHT22;1506;48.932;9.478;2022-10-31T09:00:59;13.30;99.90
2993;DHT22;1506;48.932;9.478;2022-10-31T09:03:29;13.50;52.80
2993;DHT22;1506;48.932;9.478;2022-10-31T09:08:30;14.10;75.10
2993;DHT22;1506;48.932;9.478;2022-10-31T09:10:58;14.30;1.00
2993;DHT22;1506;48.932;9.478;2022-10-31T09:13:44;14.40;1.00
2993;DHT22;1506;48.932;9.478;2022-10-31T09:16:36;14.30;13.90
2993;DHT22;1506;48.932;9.478;2022-10-31T09:19:05;14.50;1.00
2993;DHT22;1506;48.932;9.478;2022-10-31T09:21:37;14.80;15.80
2993;DHT22;1506;48.932;9.478;2022-10-31T09:24:04;15.00;1.00
2993;DHT22;1506;48.932;9.478;2022-10-31T09:26:33;15.10;1.00
2993;DHT22;1506;48.932;9.478;2022-10-31T09:29:09;15.30;1.00
2993;DHT22;1506;48.932;9.478;2022-10-31T09:31:37;15.50;1.00
2993;DHT22;1506;48.932;9.478;2022-10-31T09:34:28;15.80;1.00
2993;DHT22;1506;48.932;9.478;2022-10-31T09:37:02;16.10;99.90
2993;DHT22;1506;48.932;9.478;2022-10-31T09:39:29;16.10;1.00
2993;DHT22;1506;48.932;9.478;2022-10-31T09:48:37;17.10;61.20
2993;DHT22;1506;48.932;9.478;2022-10-31T09:51:42;17.40;99.90
2993;DHT22;1506;48.932;9.478;2022-10-31T09:57:05;17.60;1.00
2993;DHT22;1506;48.932;9.478;2022-10-31T09:59:40;17.90;99.90
2993;DHT22;1506;48.932;9.478;2022-10-31T10:02:24;18.20;1.00
2993;DHT22;1506;48.932;9.478;2022-10-31T10:05:00;18.40;1.00
2993;DHT22;1506;48.932;9.478;2022-10-31T10:07:48;18.60;99.90
2993;DHT22;1506;48.932;9.478;2022-10-31T10:25:14;20.20;99.90
2993;DHT22;1506;48.932;9.478;2022-10-31T10:28:33;20.30;99.90
2993;DHT22;1506;48.932;9.478;2022-10-31T10:30:53;20.50;67.20
2993;DHT22;1506;48.932;9.478;2022-10-31T10:33:39;20.50;63.10
2993;DHT22;1506;48.932;9.478;2022-10-31T10:36:21;20.60;73.50
2993;DHT22;1506;48.932;9.478;2022-10-31T10:39:08;20.80;1.00
2993;DHT22;1506;48.932;9.478;2022-10-31T10:41:58;21.10;17.50
2993;DHT22;1506;48.932;9.478;2022-10-31T10:44:47;21.40;22.60
2993;DHT22;1506;48.932;9.478;2022-10-31T10:47:44;20.90;56.80
2993;DHT22;1506;48.932;9.478;2022-10-31T10:50:27;21.20;1.00
2993;DHT22;1506;48.932;9.478;2022-10-31T10:56:12;21.60;94.20
2993;DHT22;1506;48.932;9.478;2022-10-31T10:58:43;21.50;82.30
2993;DHT22;1506;48.932;9.478;2022-10-31T11:01:13;21.30;99.90
2993;DHT22;1506;48.932;9.478;2022-10-31T11:03:46;21.50;99.90
2993;DHT22;1506;48.932;9.478;2022-10-31T11:06:17;21.60;99.90
2993;DHT22;1506;48.932;9.478;2022-10-31T11:08:48;21.20;66.80
2993;DHT22;1506;48.932;9.478;2022-10-31T11:13:49;20.40;99.90
2993;DHT22;1506;48.932;9.478;2022-10-31T11:16:28;19.90;99.90
2993;DHT22;1506;48.932;9.478;2022-10-31T11:19:22;19.40;1.00
2993;DHT22;1506;48.932;9.478;2022-10-31T11:21:53;19.10;1.00
2993;DHT22;1506;48.932;9.478;2022-10-31T11:24:24;19.20;99.90
2993;DHT22;1506;48.932;9.478;2022-10-31T11:27:12;19.30;99.90
2993;DHT22;1506;48.932;9.478;2022-10-31T11:29:41;19.40;99.90
2993;DHT22;1506;48.932;9.478;2022-10-31T11:32:21;19.40;1.00
2993;DHT22;1506;48.932;9.478;2022-10-31T11:34:53;19.60;99.90
2993;DHT22;1506;48.932;9.478;2022-10-31T11:37:31;19.70;1.00
2993;DHT22;1506;48.932;9.478;2022-10-31T11:40:05;19.80;1.00
2993;DHT22;1506;48.932;9.478;2022-10-31T11:42:41;19.90;4.60
2993;DHT22;1506;48.932;9.478;2022-10-31T11:45:31;19.80;99.90
2993;DHT22;1506;48.932;9.478;2022-10-31T11:48:00;19.60;1.00
2993;DHT22;1506;48.932;9.478;2022-10-31T11:50:41;19.50;1.00
2993;DHT22;1506;48.932;9.478;2022-10-31T11:53:16;19.60;99.90
2993;DHT22;1506;48.932;9.478;2022-10-31T11:55:45;19.70;1.00
2993;DHT22;1506;48.932;9.478;2022-10-31T11:58:24;20.00;1.00
2993;DHT22;1506;48.932;9.478;2022-10-31T12:00:55;20.30;1.00
2993;DHT22;1506;48.932;9.478;2022-10-31T12:06:00;20.60;99.90
2993;DHT22;1506;48.932;9.478;2022-10-31T12:08:35;20.60;1.00
2993;DHT22;1506;48.932;9.478;2022-10-31T12:11:17;20.60;1.00
2993;DHT22;1506;48.932;9.478;2022-10-31T12:14:12;20.50;1.00
2993;DHT22;1506;48.932;9.478;2022-10-31T12:17:08;20.60;1.00
2993;DHT22;1506;48.932;9.478;2022-10-31T12:28:57;21.30;99.90
2993;DHT22;1506;48.932;9.478;2022-10-31T12:40:48;21.20;99.90
2993;DHT22;1506;48.932;9.478;2022-10-31T12:46:42;21.10;99.90
2993;DHT22;1506;48.932;9.478;2022-10-31T12:50:33;21.10;99.90
2993;DHT22;1506;48.932;9.478;2022-10-31T12:58:52;20.00;1.00
2993;DHT22;1506;48.932;9.478;2022-10-31T13:01:28;19.90;57.10
2993;DHT22;1506;48.932;9.478;2022-10-31T13:06:57;19.40;99.90
2993;DHT22;1506;48.932;9.478;2022-10-31T13:09:36;19.30;99.90
2993;DHT22;1506;48.932;9.478;2022-10-31T13:12:11;19.50;99.90
2993;DHT22;1506;48.932;9.478;2022-10-31T13:14:45;19.50;1.00
2993;DHT22;1506;48.932;9.478;2022-10-31T13:17:33;19.40;99.90
2993;DHT22;1506;48.932;9.478;2022-10-31T13:23:14;19.10;1.00
2993;DHT22;1506;48.932;9.478;2022-10-31T13:26:10;19.00;1.00
2993;DHT22;1506;48.932;9.478;2022-10-31T13:28:44;18.90;99.90
2993;DHT22;1506;48.932;9.478;2022-10-31T13:31:16;18.80;1.00
2993;DHT22;1506;48.932;9.478;2022-10-31T13:33:47;18.90;99.90
2993;DHT22;1506;48.932;9.478;2022-10-31T13:36:42;19.00;1.00
2993;DHT22;1506;48.932;9.478;2022-10-31T13:44:41;19.00;99.90
2993;DHT22;1506;48.932;9.478;2022-10-31T13:52:48;18.80;1.00
2993;DHT22;1506;48.932;9.478;2022-10-31T13:55:39;18.80;1.00
2993;DHT22;1506;48.932;9.478;2022-10-31T13:58:27;18.80;90.30
2993;DHT22;1506;48.932;9.478;2022-10-31T14:01:18;18.80;1.00
2993;DHT22;1506;48.932;9.478;2022-10-31T14:04:22;18.80;99.90
2993;DHT22;1506;48.932;9.478;2022-10-31T14:12:06;19.40;13.20
2993;DHT22;1506;48.932;9.478;2022-10-31T14:14:48;19.60;1.00
2993;DHT22;1506;48.932;9.478;2022-10-31T14:17:23;19.90;1.00
2993;DHT22;1506;48.932;9.478;2022-10-31T14:22:39;20.20;99.90
2993;DHT22;1506;48.932;9.478;2022-10-31T14:25:31;20.40;1.00
2993;DHT22;1506;48.932;9.478;2022-10-31T14:28:35;20.40;1.00
2993;DHT22;1506;48.932;9.478;2022-10-31T14:31:21;20.40;99.90
2993;DHT22;1506;48.932;9.478;2022-10-31T14:33:52;19.90;99.90
2993;DHT22;1506;48.932;9.478;2022-10-31T14:45:49;19.00;99.90
2993;DHT22;1506;48.932;9.478;2022-10-31T14:51:10;19.20;99.90
2993;DHT22;1506;48.932;9.478;2022-10-31T14:53:52;19.10;1.00
2993;DHT22;1506;48.932;9.478;2022-10-31T14:56:26;19.10;1.00
2993;DHT22;1506;48.932;9.478;2022-10-31T14:58:56;19.10;99.90
2993;DHT22;1506;48.932;9.478;2022-10-31T15:01:35;19.00;99.90
2993;DHT22;1506;48.932;9.478;2022-10-31T15:04:16;19.00;99.90
2993;DHT22;1506;48.932;9.478;2022-10-31T15:10:23;18.90;1.00
2993;DHT22;1506;48.932;9.478;2022-10-31T15:13:17;18.80;1.00
2993;DHT22;1506;48.932;9.478;2022-10-31T15:15:45;18.70;99.90
2993;DHT22;1506;48.932;9.478;2022-10-31T15:18:27;18.60;99.90
2993;DHT22;1506;48.932;9.478;2022-10-31T15:20:56;18.50;1.00
2993;DHT22;1506;48.932;9.478;2022-10-31T15:23:26;18.20;1.00
2993;DHT22;1506;48.932;9.478;2022-10-31T15:26:03;18.20;1.00
2993;DHT22;1506;48.932;9.478;2022-10-31T15:28:31;18.10;1.00
2993;DHT22;1506;48.932;9.478;2022-10-31T15:31:00;18.00;1.00
2993;DHT22;1506;48.932;9.478;2022-10-31T15:33:39;18.00;1.00
2993;DHT22;1506;48.932;9.478;2022-10-31T15:36:24;18.00;1.00
2993;DHT22;1506;48.932;9.478;2022-10-31T15:38:56;17.90;1.00
2993;DHT22;1506;48.932;9.478;2022-10-31T15:44:15;17.90;1.00
2993;DHT22;1506;48.932;9.478;2022-10-31T15:47:01;17.70;1.00
2993;DHT22;1506;48.932;9.478;2022-10-31T15:52:41;17.30;86.90
